sensor_id;sensor_type;location;lat;lon;timestamp;P1;P2;P0
58740;PMS7003;44512;53.046;18.604;2023-10-31T00:03:09;26;21;16
58740;PMS7003;44512;53.046;18.604;2023-10-31T00:13:38;22;21;15
58740;PMS7003;44512;53.046;18.604;2023-10-31T00:24:06;24;23;15
58740;PMS7003;44512;53.046;18.604;2023-10-31T00:34:34;31;26;19
58740;PMS7003;44512;53.046;18.604;2023-10-31T00:45:03;26;23;19
58740;PMS7003;44512;53.046;18.604;2023-10-31T00:55:31;29;22;17
58740;PMS7003;44512;53.046;18.604;2023-10-31T01:06:00;27;22;15
58740;PMS7003;44512;53.046;18.604;2023-10-31T01:16:28;27;23;16
58740;PMS7003;44512;53.046;18.604;2023-10-31T01:26:56;28;23;17
58740;PMS7003;44512;53.046;18.604;2023-10-31T01:37:25;27;21;15
58740;PMS7003;44512;53.046;18.604;2023-10-31T01:47:53;28;22;16
58740;PMS7003;44512;53.046;18.604;2023-10-31T01:58:23;24;19;13
58740;PMS7003;44512;53.046;18.604;2023-10-31T02:08:50;20;17;12
58740;PMS7003;44512;53.046;18.604;2023-10-31T02:19:19;19;16;12
58740;PMS7003;44512;53.046;18.604;2023-10-31T02:29:47;16;15;12
58740;PMS7003;44512;53.046;18.604;2023-10-31T02:40:15;19;16;14
58740;PMS7003;44512;53.046;18.604;2023-10-31T02:50:43;17;17;12
58740;PMS7003;44512;53.046;18.604;2023-10-31T03:01:11;20;16;12
58740;PMS7003;44512;53.046;18.604;2023-10-31T03:11:40;20;16;12
58740;PMS7003;44512;53.046;18.604;2023-10-31T03:22:08;19;16;12
58740;PMS7003;44512;53.046;18.604;2023-10-31T03:32:37;16;14;10
58740;PMS7003;44512;53.046;18.604;2023-10-31T03:43:05;17;15;12
58740;PMS7003;44512;53.046;18.604;2023-10-31T03:53:33;16;14;11
58740;PMS7003;44512;53.046;18.604;2023-10-31T04:04:02;17;16;12
58740;PMS7003;44512;53.046;18.604;2023-10-31T04:14:30;22;16;13
58740;PMS7003;44512;53.046;18.604;2023-10-31T04:24:59;20;16;12
58740;PMS7003;44512;53.046;18.604;2023-10-31T04:35:27;17;15;11
58740;PMS7003;44512;53.046;18.604;2023-10-31T04:45:55;22;15;12
58740;PMS7003;44512;53.046;18.604;2023-10-31T04:56:24;16;14;11
58740;PMS7003;44512;53.046;18.604;2023-10-31T05:06:52;19;16;12
58740;PMS7003;44512;53.046;18.604;2023-10-31T05:17:20;20;16;12
58740;PMS7003;44512;53.046;18.604;2023-10-31T05:27:49;18;15;11
58740;PMS7003;44512;53.046;18.604;2023-10-31T05:38:17;19;17;12
58740;PMS7003;44512;53.046;18.604;2023-10-31T05:48:46;19;16;12
58740;PMS7003;44512;53.046;18.604;2023-10-31T05:59:14;17;15;12
58740;PMS7003;44512;53.046;18.604;2023-10-31T06:09:42;19;14;10
58740;PMS7003;44512;53.046;18.604;2023-10-31T06:20:11;11;10;8
58740;PMS7003;44512;53.046;18.604;2023-10-31T06:30:39;12;10;9
58740;PMS7003;44512;53.046;18.604;2023-10-31T06:41:07;15;13;10
58740;PMS7003;44512;53.046;18.604;2023-10-31T06:51:36;17;15;11
58740;PMS7003;44512;53.046;18.604;2023-10-31T07:02:04;16;13;10
58740;PMS7003;44512;53.046;18.604;2023-10-31T07:12:33;14;11;9
58740;PMS7003;44512;53.046;18.604;2023-10-31T07:23:01;11;9;7
58740;PMS7003;44512;53.046;18.604;2023-10-31T07:33:29;13;11;9
58740;PMS7003;44512;53.046;18.604;2023-10-31T07:43:58;10;9;7
58740;PMS7003;44512;53.046;18.604;2023-10-31T07:54:26;12;10;8
58740;PMS7003;44512;53.046;18.604;2023-10-31T08:04:54;12;10;8
58740;PMS7003;44512;53.046;18.604;2023-10-31T08:15:23;10;8;7
58740;PMS7003;44512;53.046;18.604;2023-10-31T08:25:51;14;10;8
58740;PMS7003;44512;53.046;18.604;2023-10-31T08:36:20;12;9;7
58740;PMS7003;44512;53.046;18.604;2023-10-31T08:46:48;10;9;7
58740;PMS7003;44512;53.046;18.604;2023-10-31T08:57:16;10;9;7
58740;PMS7003;44512;53.046;18.604;2023-10-31T09:07:45;13;11;8
58740;PMS7003;44512;53.046;18.604;2023-10-31T09:18:13;12;11;9
58740;PMS7003;44512;53.046;18.604;2023-10-31T09:28:41;15;11;9
58740;PMS7003;44512;53.046;18.604;2023-10-31T09:39:10;13;12;10
58740;PMS7003;44512;53.046;18.604;2023-10-31T09:49:38;14;13;10
58740;PMS7003;44512;53.046;18.604;2023-10-31T10:00:07;16;13;10
58740;PMS7003;44512;53.046;18.604;2023-10-31T10:10:35;18;14;11
58740;PMS7003;44512;53.046;18.604;2023-10-31T10:21:04;17;13;11
58740;PMS7003;44512;53.046;18.604;2023-10-31T10:31:31;11;11;9
58740;PMS7003;44512;53.046;18.604;2023-10-31T10:42:00;11;9;8
58740;PMS7003;44512;53.046;18.604;2023-10-31T10:57:14;0;0;0
58740;PMS7003;44512;53.046;18.604;2023-10-31T11:07:25;12;11;9
58740;PMS7003;44512;53.046;18.604;2023-10-31T11:17:29;12;11;8
58740;PMS7003;44512;53.046;18.604;2023-10-31T11:27:35;10;10;8
58740;PMS7003;44512;53.046;18.604;2023-10-31T11:37:37;15;11;9
58740;PMS7003;44512;53.046;18.604;2023-10-31T11:57:52;12;11;9
58740;PMS7003;44512;53.046;18.604;2023-10-31T12:07:53;10;9;7
58740;PMS7003;44512;53.046;18.604;2023-10-31T12:17:59;7;6;5
58740;PMS7003;44512;53.046;18.604;2023-10-31T12:28:00;8;5;4
58740;PMS7003;44512;53.046;18.604;2023-10-31T12:38:01;6;5;4
58740;PMS7003;44512;53.046;18.604;2023-10-31T12:48:03;6;5;4
58740;PMS7003;44512;53.046;18.604;2023-10-31T12:58:18;8;7;5
58740;PMS7003;44512;53.046;18.604;2023-10-31T13:08:22;6;5;5
58740;PMS7003;44512;53.046;18.604;2023-10-31T13:18:23;9;8;7
58740;PMS7003;44512;53.046;18.604;2023-10-31T13:28:24;10;7;6
58740;PMS7003;44512;53.046;18.604;2023-10-31T13:38:25;8;6;5
58740;PMS7003;44512;53.046;18.604;2023-10-31T13:48:26;5;5;4
58740;PMS7003;44512;53.046;18.604;2023-10-31T13:58:27;4;4;3
58740;PMS7003;44512;53.046;18.604;2023-10-31T14:08:28;5;4;4
58740;PMS7003;44512;53.046;18.604;2023-10-31T14:18:29;3;3;3
58740;PMS7003;44512;53.046;18.604;2023-10-31T14:28:31;2;2;2
58740;PMS7003;44512;53.046;18.604;2023-10-31T14:38:33;1;1;1
58740;PMS7003;44512;53.046;18.604;2023-10-31T14:48:34;2;2;1
58740;PMS7003;44512;53.046;18.604;2023-10-31T14:58:50;3;2;2
58740;PMS7003;44512;53.046;18.604;2023-10-31T15:09:19;2;2;1
58740;PMS7003;44512;53.046;18.604;2023-10-31T15:19:47;3;2;1
58740;PMS7003;44512;53.046;18.604;2023-10-31T15:30:16;3;3;2
58740;PMS7003;44512;53.046;18.604;2023-10-31T15:40:44;12;8;6
58740;PMS7003;44512;53.046;18.604;2023-10-31T15:51:12;2;1;1
58740;PMS7003;44512;53.046;18.604;2023-10-31T16:01:41;6;4;2
58740;PMS7003;44512;53.046;18.604;2023-10-31T16:12:09;5;5;4
58740;PMS7003;44512;53.046;18.604;2023-10-31T16:22:37;5;4;3
58740;PMS7003;44512;53.046;18.604;2023-10-31T16:33:06;4;2;2
58740;PMS7003;44512;53.046;18.604;2023-10-31T16:43:34;5;4;3
58740;PMS7003;44512;53.046;18.604;2023-10-31T16:54:03;3;3;3
58740;PMS7003;44512;53.046;18.604;2023-10-31T17:04:31;7;5;4
58740;PMS7003;44512;53.046;18.604;2023-10-31T17:14:59;10;7;6
58740;PMS7003;44512;53.046;18.604;2023-10-31T17:25:28;14;11;8
58740;PMS7003;44512;53.046;18.604;2023-10-31T17:35:56;9;7;6
58740;PMS7003;44512;53.046;18.604;2023-10-31T17:46:24;9;8;6
58740;PMS7003;44512;53.046;18.604;2023-10-31T17:56:53;6;4;3
58740;PMS7003;44512;53.046;18.604;2023-10-31T18:07:21;4;3;2
58740;PMS7003;44512;53.046;18.604;2023-10-31T18:17:49;4;4;3
58740;PMS7003;44512;53.046;18.604;2023-10-31T18:28:18;3;3;2
58740;PMS7003;44512;53.046;18.604;2023-10-31T18:38:46;4;2;2
58740;PMS7003;44512;53.046;18.604;2023-10-31T18:49:15;3;2;2
58740;PMS7003;44512;53.046;18.604;2023-10-31T18:59:43;2;2;1
58740;PMS7003;44512;53.046;18.604;2023-10-31T19:10:11;2;1;1
58740;PMS7003;44512;53.046;18.604;2023-10-31T19:20:40;1;1;1
58740;PMS7003;44512;53.046;18.604;2023-10-31T19:31:08;2;1;1
58740;PMS7003;44512;53.046;18.604;2023-10-31T19:41:36;2;1;1
58740;PMS7003;44512;53.046;18.604;2023-10-31T19:52:05;1;1;1
58740;PMS7003;44512;53.046;18.604;2023-10-31T20:02:33;1;1;0
58740;PMS7003;44512;53.046;18.604;2023-10-31T20:13:01;2;1;1
58740;PMS7003;44512;53.046;18.604;2023-10-31T20:23:30;1;0;0
58740;PMS7003;44512;53.046;18.604;2023-10-31T20:33:58;1;0;0
58740;PMS7003;44512;53.046;18.604;2023-10-31T20:44:26;1;0;0
58740;PMS7003;44512;53.046;18.604;2023-10-31T20:54:55;0;0;0
58740;PMS7003;44512;53.046;18.604;2023-10-31T21:05:23;0;0;0
58740;PMS7003;44512;53.046;18.604;2023-10-31T21:15:52;1;0;0
58740;PMS7003;44512;53.046;18.604;2023-10-31T21:26:20;1;0;0
58740;PMS7003;44512;53.046;18.604;2023-10-31T21:36:48;5;2;2
58740;PMS7003;44512;53.046;18.604;2023-10-31T21:47:16;5;1;1
58740;PMS7003;44512;53.046;18.604;2023-10-31T21:57:45;1;1;1
58740;PMS7003;44512;53.046;18.604;2023-10-31T22:08:13;2;1;1
58740;PMS7003;44512;53.046;18.604;2023-10-31T22:18:42;0;0;0
58740;PMS7003;44512;53.046;18.604;2023-10-31T22:29:10;2;0;0
58740;PMS7003;44512;53.046;18.604;2023-10-31T22:39:38;0;0;0
58740;PMS7003;44512;53.046;18.604;2023-10-31T22:50:07;0;0;0
58740;PMS7003;44512;53.046;18.604;2023-10-31T23:00:35;0;0;0
58740;PMS7003;44512;53.046;18.604;2023-10-31T23:11:03;0;0;0
58740;PMS7003;44512;53.046;18.604;2023-10-31T23:21:31;0;0;0
58740;PMS7003;44512;53.046;18.604;2023-10-31T23:32:00;1;0;0
58740;PMS7003;44512;53.046;18.604;2023-10-31T23:42:28;1;0;0
58740;PMS7003;44512;53.046;18.604;2023-10-31T23:52:56;0;0;0
